KEVW/EVW METAR and TAF weather

Enter ICAO airport designator
Station Type Date Time Source
KEVW METAR 2020/01/24 08:53 UTC NOAA

KEVW 240853Z AUTO 24004KT 10SM CLR M03/M07 A3016 RMK AO2 SLP223 T10331072 58013


Station Type Date Time Source
KEVW Decoded METAR 2020/01/24 08:53 UTC NOAA

EVANSTON-UINTA COUNTY FIELD, WY, United States (KEVW) 41-16N 111-02W 2177M
Jan 24, 2020 - 03:53 AM EST / 2020.01.24 0853 UTC
Wind: from the WSW (240 degrees) at 5 MPH (4 KT):0
Visibility: 10 mile(s):0
Sky conditions: clear
Temperature: 26.1 F (-3.3 C)
Windchill: 19 F (-7 C):1
Dew Point: 19.0 F (-7.2 C)
Relative Humidity: 74%
Pressure (altimeter): 30.16 in. Hg (1021 hPa)
Pressure tendency: 0.04 inches (1.3 hPa) lower than three hours ago
ob: KEVW 240853Z AUTO 24004KT 10SM CLR M03/M07 A3016 RMK AO2 SLP223 T10331072 58013
cycle: 9

Station Type Date Time Source
KEVW TAF 2020/01/24 09:42 UTC NOAA

TAF KEVW 240834Z 2409/2506 24004KT P6SM SCT040 BKN150
FM242000 23008KT 5SM -SHSN SCT015 OVC025
FM250200 25010KT P6SM BCFG BKN030

Example: see airport list